Cokeville, WY (83114)

1:06 PM MST on December 25, 2014 (GMT -0700)
APRSWXNET Grace ID US | Change Station
CLOSE
Current Station
Personal Weather Station
Location: Bern, ID
Elevation: 5534 ft
Nearby Weather Stations
Active Advisory: Winter Storm Warning

Elev 5534 ft 42.30 °N, 111.40 °W | Updated 37 minutes ago

Snow
Snow
24 °F
Feels Like 12 °F
N
13
Wind Variable Wind from NNW
Gusts 21.0 mph

Today
High -- | Low -- °F
--% Chance of Precip.
Yesterday
High -- | Low -- °F
Precip. -- in
7:51 AM 4:57 PM
Waxing Crescent, 19% visible
Pressure 29.54 in
Visibility 0.8 miles
Clouds Overcast 1300 ft
Windchill 12 °F
Dew Point 21 °F
Humidity 89%
Rainfall 0.00 in
Snow Depth Not available.
UV 1 out of 12
Pollen .10 out of 12
Air Quality Not available.
Flu Activity Not available.
METAR KAFO 251955Z AUTO 00000KT 3/4SM UP OVC013 M04/M05 A2954 RMK AO2

More Conditions Fewer Conditions

Pressure 29.54 in
Visibility 0.8 miles
Clouds Overcast 1300 ft
Windchill 12 °F
Dew Point 21 °F
Humidity 89%
Rainfall 0.00 in
Snow Depth Not available.
UV 1 out of 12
Pollen .10 out of 12
Air Quality Not available.
Flu Activity Not available.
METAR KAFO 251955Z AUTO 00000KT 3/4SM UP OVC013 M04/M05 A2954 RMK AO2

More Conditions Fewer Conditions

10-Day Weather Forecast

Almanac

Astronomy

Dec. 25, 2014 Rise Set
Actual Time
Civil Twilight
Nautical Twilight
Astronomical Twilight
Moon
Length of Visible Light
Length of Day
Tomorrow will be .
, % of the Moon is Illuminated

Today's Extremes

State Highs State Lows

Community

WunderPhotos

Upload Photos

1,780,385 photos uploaded!

WunderBlogs® & News

Nearby

Air Quality

  Air Quality AQ Index Pollutant
Not available.

Snow Depth

Station Depth Elevation

Earthquake Activity

City Distance Mag. Time & Date
Minimum magnitude displayed is 2.5.

Coastal Water Temperatures

Place Temperature

Nearby Weather Stations